• Join FlightAware (Why Join?)
  • Login
  • US Flag 
01:10PM EDT


 

Airport Tracker/Info


-or-


 

Live Flight TrackerFlight Track Log ✈ N509QS ✈ 29-Aug-2013 ✈ KDAL - KBQK

Flight Track Log - Related Links

Times and Time Zones

All times are in EDT time to prevent confusion due to time zone crossing. See the N509QS flight status page for this flight to view local times or setup timezone preferences in your user account.

Time Position Orientation Groundspeed Altitude Reporting Facility
EDT Latitude Longitude Course Direction KTS MPH feet Rate Location/Type
04:07PM 32.8333 -96.8333 126° Southeast 157 181 1,800  Level Dallas / Fort Worth TRACON
04:09PM 32.7564 -96.7097 126° Southeast 245 282 8,600 2,640 Climbing Houston Center
04:10PM 32.7614 -96.6156 86° East 283 326 10,200 2,040 Climbing Houston Center
04:11PM 32.7611 -96.4869 90° East 343 395 12,900 2,760 Climbing Fort Worth Center
04:12PM 32.7600 -96.3439 90° East 389 448 15,900 2,700 Climbing Fort Worth Center
04:13PM 32.7442 -96.2228 99° East 406 467 18,300 2,520 Climbing Fort Worth Center
04:14PM 32.7219 -96.0725 100° East 418 481 21,000 2,400 Climbing Fort Worth Center
04:15PM 32.6994 -95.9419 102° East 429 494 23,200 2,400 Climbing Fort Worth Center
04:16PM 32.6725 -95.7797 101° East 447 514 25,900 1,980 Climbing Fort Worth Center
04:17PM 32.6603 -95.6417 96° East 456 525 27,200 2,280 Climbing Fort Worth Center
04:18PM 32.6681 -95.4689 87° East 472 543 30,500 2,880 Climbing Fort Worth Center
04:19PM 32.6781 -95.3131 86° East 472 543 33,100 2,580 Climbing Fort Worth Center
04:20PM 32.6858 -95.1575 87° East 472 543 35,700 2,400 Climbing Fort Worth Center
04:21PM 32.6956 -95.0042 86° East 467 537 37,900 2,280 Climbing Fort Worth Center
04:22PM 32.7031 -94.8558 87° East 461 531 40,300 2,100 Climbing Fort Worth Center
04:23PM 32.6811 -94.7058 100° East 461 531 42,100 1,560 Climbing Fort Worth Center
04:24PM 32.6342 -94.5667 112° Southeast 451 519 43,400 1,320 Climbing Fort Worth Center
04:25PM 32.5850 -94.4300 113° Southeast 451 519 44,800 1,500 Climbing Fort Worth Center
04:26PM 32.5403 -94.2961 112° Southeast 451 519 46,400 1,080 Climbing Fort Worth Center
04:27PM 32.4950 -94.1622 112° Southeast 439 505 47,000 600 Climbing Fort Worth Center
04:28PM 32.4497 -94.0308 112° Southeast 434 499 47,700 600 Climbing Fort Worth Center
04:29PM 32.4044 -93.8997 112° Southeast 434 499 48,300 600 Climbing Fort Worth Center
04:30PM 32.3589 -93.7686 112° Southeast 429 494 48,900 300 Climbing Fort Worth Center
04:31PM 32.3114 -93.6378 113° Southeast 434 499 49,000  Climbing Fort Worth Center
04:32PM 32.2408 -93.4275 112° Southeast 435 501 49,000  Level Houston Center
04:33PM 32.1939 -93.2931 112° Southeast 442 509 49,000  Level Houston Center
04:34PM 32.1461 -93.1578 113° Southeast 445 512 49,000  Level Houston Center
04:36PM 32.0900 -92.9931 112° Southeast 450 518 49,000  Level Houston Center
04:37PM 32.0697 -92.8675 101° East 451 519 49,000  Level Houston Center
04:38PM 32.0572 -92.7236 96° East 443 510 49,000  Level Houston Center
04:39PM 32.0400 -92.5481 97° East 447 514 49,000  Level Houston Center
04:40PM 32.0256 -92.4031 97° East 446 513 49,000  Level Houston Center
04:41PM 32.0114 -92.2581 97° East 446 513 49,000  Level Houston Center
04:42PM 31.9967 -92.1122 97° East 447 514 49,000  Level Houston Center
04:43PM 31.9783 -91.9414 97° East 454 522 49,000  Level Houston Center
04:44PM 31.9636 -91.7964 97° East 450 518 49,000  Level Houston Center
04:45PM 31.9472 -91.6506 98° East 448 516 49,000  Level Houston Center
04:46PM 31.9322 -91.5044 97° East 448 516 49,000  Level Houston Center
04:47PM 31.9161 -91.3581 97° East 450 518 49,000  Level Houston Center
04:48PM 31.9006 -91.2100 97° East 453 521 49,000  Level Houston Center
04:49PM 31.8808 -91.0339 97° East 453 521 49,000  Level Houston Center
04:50PM 31.8642 -90.8853 97° East 457 526 49,000  Level Houston Center
04:51PM 31.8475 -90.7322 97° East 456 525 49,000  Level Houston Center
04:52PM 31.8303 -90.5836 98° East 458 527 49,000  Level Houston Center
04:53PM 31.8103 -90.4067 98° East 457 526 49,000  Level Houston Center
04:54PM 31.7933 -90.2603 98° East 453 521 49,000  Level Houston Center
04:55PM 31.7750 -90.1144 98° East 453 521 49,000  Level Houston Center
04:56PM 31.7556 -89.9369 97° East 455 524 49,000  Level Houston Center
04:57PM 31.7369 -89.7903 98° East 454 522 49,000  Level Houston Center
04:58PM 31.7194 -89.6431 98° East 454 522 49,000  Level Houston Center
05:00PM 31.7008 -89.4894 98° East 452 520 49,000  Level Houston Center
05:01PM 31.6839 -89.3469 98° East 443 510 49,000  Level Houston Center
05:02PM 31.6658 -89.2039 98° East 442 509 49,000  Level Houston Center
05:03PM 31.6475 -89.0625 99° East 440 506 49,000  Level Houston Center
05:04PM 31.6306 -88.9194 98° East 442 509 49,000  Level Houston Center
05:05PM 31.6078 -88.7464 99° East 444 511 49,000  Level Houston Center
05:06PM 31.5892 -88.6047 99° East 441 507 49,000  Level Houston Center
05:07PM 31.5708 -88.4625 99° East 441 507 49,000  Level Houston Center
05:08PM 31.5525 -88.3192 98° East 443 510 49,000  Level Houston Center
05:09PM 31.5331 -88.1753 99° East 445 512 49,000  Level Houston Center
05:10PM 31.5136 -88.0325 99° East 443 510 49,000  Level Houston Center
05:11PM 31.4944 -87.8883 99° East 445 512 49,000  Level Houston Center
05:12PM 31.4703 -87.7167 99° East 444 511 49,000  Level Houston Center
05:13PM 31.4508 -87.5717 99° East 449 517 49,000  Level Houston Center
05:14PM 31.4308 -87.4283 99° East 447 514 49,000  Level Houston Center
05:15PM 31.4111 -87.2825 99° East 450 518 49,000  Level Houston Center
05:16PM 31.3903 -87.1378 100° East 451 519 49,000  Level Houston Center
05:17PM 31.3636 -86.9797 101° East 448 516 49,000  Level Jacksonville Center
05:18PM 31.3433 -86.8306 99° East 448 516 49,000  Level Jacksonville Center
05:19PM 31.3206 -86.6861 100° East 448 516 49,000  Level Jacksonville Center
05:20PM 31.2997 -86.5444 100° East 448 516 49,000  Level Jacksonville Center
05:21PM 31.2789 -86.3978 99° East 453 521 49,000  Level Jacksonville Center
05:22PM 31.2519 -86.2364 101° East 453 521 49,000  Level Jacksonville Center
05:23PM 31.2325 -86.0922 99° East 453 521 49,000  Level Jacksonville Center
05:24PM 31.2111 -85.9483 100° East 448 516 49,000  Level Jacksonville Center
05:25PM 31.1872 -85.8092 101° East 448 516 49,000  Level Jacksonville Center
05:26PM 31.1733 -85.6800 97° East 456 525 49,000  Level Jacksonville Center
05:27PM 31.1514 -85.5336 100° East 451 519 49,000  Level Jacksonville Center
05:28PM 31.1256 -85.3753 101° East 451 519 49,000  Level Jacksonville Center
05:29PM 31.1053 -85.2317 99° East 451 519 49,000  Level Jacksonville Center
05:30PM 31.0806 -85.0928 102° East 445 512 49,000  Level Jacksonville Center
05:31PM 31.0831 -84.9447 89° East 445 512 49,000 -600 Level Jacksonville Center
05:32PM 31.0894 -84.7969 87° East 445 512 47,800 -1,500 Descending Jacksonville Center
05:33PM 31.1019 -84.6517 84° East 445 512 46,000 -1,860 Descending Jacksonville Center
05:34PM 31.1103 -84.5111 86° East 445 512 44,100 -1,980 Descending Jacksonville Center
05:35PM 31.1183 -84.3656 86° East 445 512 42,100 -2,040 Descending Jacksonville Center
05:36PM 31.1283 -84.2153 86° East 445 512 40,100 -9,060 Descending Jacksonville Center
05:37PM 31.1358 -84.0672 87° East 450 518 24,000 -2,040 Descending Jacksonville Center
05:38PM 31.1436 -83.9169 87° East 455 524 36,100 4,980 Climbing Jacksonville Center
05:39PM 31.1508 -83.7617 87° East 468 539 34,000 -2,100 Descending Jacksonville Center
05:40PM 31.1581 -83.6039 87° East 478 550 31,900 -2,100 Descending Jacksonville Center
05:41PM 31.1694 -83.4511 85° East 478 550 29,900 -2,040 Descending Jacksonville Center
05:42PM 31.1761 -83.3006 87° East 473 544 27,900 -2,040 Descending Jacksonville Center
05:43PM 31.1850 -83.1572 86° East 459 528 25,900 -1,980 Descending Jacksonville Center
05:44PM 31.1914 -83.0164 87° East 446 513 24,000 -1,980 Descending Jacksonville Center
05:45PM 31.1978 -82.8803 87° East 432 497 22,000 -2,160 Descending Jacksonville Center
05:46PM 31.2061 -82.7444 86° East 421 484 19,700 -2,040 Descending Jacksonville Center
05:47PM 31.2100 -82.6206 88° East 403 464 18,000 -960 Descending Jacksonville Center
05:48PM 31.2158 -82.4894 87° East 398 458 17,800 -1,080 Descending Jacksonville Center
05:49PM 31.2217 -82.3631 87° East 398 458 15,900 -1,860 Descending Jacksonville Center
05:50PM 31.2275 -82.2414 87° East 393 452 14,100 -1,800 Descending Jacksonville Center
05:51PM 31.2308 -82.1247 88° East 374 430 12,400 -1,500 Descending Jacksonville Center
05:52PM 31.2450 -82.0250 81° East 340 391 11,200 -1,260 Descending Jacksonville Center
05:53PM 31.2756 -81.9347 68° East 287 330 9,900 -1,200 Descending Jacksonville Center
05:54PM 31.3000 -81.8447 72° East 287 330 8,800 -1,140 Descending Jacksonville Center
05:55PM 31.3283 -81.7592 69° East 292 336 7,700 -900 Descending Jacksonville Center
05:56PM 31.3486 -81.6883 71° East 270 311 7,000 -600 Descending Jacksonville Center
05:57PM 31.3750 -81.6053 70° East 241 277 6,500 -900 Descending Jacksonville Center
05:58PM 31.3972 -81.5294 71° East 235 270 5,300 -1,200 Descending Jacksonville Center
05:59PM 31.4194 -81.4586 70° East 235 270 4,100 -660 Descending Jacksonville Center
06:00PM 31.4375 -81.4000 70° East 222 255 4,000 -60 Descending Jacksonville Center
06:01PM 31.4533 -81.3436 72° East 191 220 4,000 -420 Level Jacksonville Center
06:02PM 31.4194 -81.3028 134° Southeast 153 176 3,200 -840 Descending Jacksonville Center
06:03PM 31.3775 -81.2792 154° Southeast 158 182 2,400 -780 Descending Jacksonville Center
06:04PM 31.3358 -81.2775 178° South 158 182 1,700 -360 Descending Jacksonville Center
06:05PM 31.3194 -81.3167 244° Southwest 144 166 1,700  Level Jacksonville Center
06:06PM 31.3014 -81.3656 247° West 151 174 1,700  Level Jacksonville Center